Time;durP1;ratioP1;P1;durP2;ratioP2;P2;SDS_P1;SDS_P2;PMS_P1;PMS_P2;Temp;Humidity;BMP_temperature;BMP_pressure;BME280_temperature;BME280_humidity;BME280_pressure;Samples;Min_cycle;Max_cycle;Signal;HPM_P1;HPM_P2
2023/07/18 00:00:13;;;;;;;;;;;21.90;58.30;;;;;;5037016;28;19921;-60
2023/07/18 00:02:39;;;;;;;;;;;21.90;58.30;;;;;;5037143;28;19920;-60
2023/07/18 00:05:06;;;;;;;;;;;21.90;58.30;;;;;;5036890;28;20388;-60
2023/07/18 00:07:33;;;;;;;;;;;21.90;58.30;;;;;;5053337;28;19925;-60
2023/07/18 00:09:58;;;;;;;;;;;21.90;58.30;;;;;;5037008;28;19921;-60
2023/07/18 00:12:24;;;;;;;;;;;21.90;58.30;;;;;;5036957;28;19928;-61
2023/07/18 00:14:50;;;;;;;;;;;21.90;58.30;;;;;;5053582;28;19972;-60
2023/07/18 00:17:15;;;;;;;;;;;21.90;58.30;;;;;;5054467;28;19963;-60
2023/07/18 00:19:41;;;;;;;;;;;21.90;58.30;;;;;;5054402;28;19983;-60
2023/07/18 00:22:07;;;;;;;;;;;21.80;58.20;;;;;;5054495;28;19920;-60
2023/07/18 00:24:33;;;;;;;;;;;21.80;58.30;;;;;;5054217;28;20292;-60
2023/07/18 00:26:59;;;;;;;;;;;21.80;58.20;;;;;;5053003;28;20015;-60
2023/07/18 00:29:25;;;;;;;;;;;21.80;58.30;;;;;;5052964;28;20349;-60
2023/07/18 00:31:50;;;;;;;;;;;21.80;58.20;;;;;;5036699;28;20015;-60
2023/07/18 00:34:16;;;;;;;;;;;21.80;58.20;;;;;;5054141;28;19921;-61
2023/07/18 00:36:43;;;;;;;;;;;21.80;58.20;;;;;;5052915;28;19928;-60
2023/07/18 00:39:09;;;;;;;;;;;21.80;58.30;;;;;;5054063;28;19928;-60
2023/07/18 00:41:34;;;;;;;;;;;21.80;58.30;;;;;;5036501;28;20369;-61
2023/07/18 00:44:00;;;;;;;;;;;21.80;58.30;;;;;;5053981;28;19925;-61
2023/07/18 00:46:26;;;;;;;;;;;21.80;58.20;;;;;;5035599;28;19925;-61
2023/07/18 00:48:52;;;;;;;;;;;21.80;58.30;;;;;;5036319;28;19927;-60
2023/07/18 00:51:18;;;;;;;;;;;21.70;58.20;;;;;;5036289;28;19920;-61
2023/07/18 00:53:43;;;;;;;;;;;21.70;58.30;;;;;;5035923;28;19971;-60
2023/07/18 00:56:09;;;;;;;;;;;21.70;58.20;;;;;;5053789;28;19921;-61
2023/07/18 00:58:35;;;;;;;;;;;21.70;58.20;;;;;;5036225;28;19975;-61
2023/07/18 01:01:00;;;;;;;;;;;21.70;58.30;;;;;;5036074;28;20372;-60
2023/07/18 01:03:26;;;;;;;;;;;21.70;58.20;;;;;;5036126;28;19974;-60
2023/07/18 01:05:53;;;;;;;;;;;21.70;58.30;;;;;;5035930;28;19921;-60
2023/07/18 01:08:19;;;;;;;;;;;21.70;58.20;;;;;;5035533;28;20380;-60
2023/07/18 01:10:45;;;;;;;;;;;21.60;58.20;;;;;;5035482;28;19928;-61
2023/07/18 01:13:11;;;;;;;;;;;21.60;58.20;;;;;;5035865;28;19928;-60
2023/07/18 01:15:37;;;;;;;;;;;21.60;58.20;;;;;;5053302;28;19974;-61
2023/07/18 01:18:04;;;;;;;;;;;21.60;58.20;;;;;;5036024;28;19925;-60
2023/07/18 01:20:30;;;;;;;;;;;21.60;58.30;;;;;;5053625;28;19943;-60
2023/07/18 01:22:57;;;;;;;;;;;21.70;58.30;;;;;;5035411;28;20376;-60
2023/07/18 01:25:23;;;;;;;;;;;21.60;58.30;;;;;;5035142;28;19920;-61
2023/07/18 01:27:50;;;;;;;;;;;21.60;58.30;;;;;;5053281;28;20058;-60
2023/07/18 01:30:17;;;;;;;;;;;21.60;58.30;;;;;;5051754;28;19943;-61
2023/07/18 01:32:42;;;;;;;;;;;21.60;58.30;;;;;;5053342;28;20372;-60
2023/07/18 01:35:08;;;;;;;;;;;21.60;58.30;;;;;;5052900;28;19967;-60
2023/07/18 01:37:34;;;;;;;;;;;21.60;58.30;;;;;;5035415;28;20298;-60
2023/07/18 01:40:00;;;;;;;;;;;21.60;58.30;;;;;;5051305;28;19920;-61
2023/07/18 01:42:26;;;;;;;;;;;21.50;58.20;;;;;;5052728;28;20008;-60
2023/07/18 01:44:52;;;;;;;;;;;21.50;58.20;;;;;;5035217;28;19921;-60
2023/07/18 01:47:17;;;;;;;;;;;21.50;58.20;;;;;;5051495;28;19931;-60
2023/07/18 01:49:43;;;;;;;;;;;21.50;58.20;;;;;;5052786;28;19928;-60
2023/07/18 01:52:08;;;;;;;;;;;21.60;58.30;;;;;;5052661;28;20292;-60
2023/07/18 01:54:34;;;;;;;;;;;21.50;58.20;;;;;;5051392;28;19921;-60
2023/07/18 01:56:59;;;;;;;;;;;21.50;58.20;;;;;;5051176;28;19921;-60
2023/07/18 01:59:25;;;;;;;;;;;21.50;58.30;;;;;;5034699;28;19920;-60
2023/07/18 02:01:51;;;;;;;;;;;21.50;58.30;;;;;;5034968;28;19925;-60
2023/07/18 02:04:18;;;;;;;;;;;21.50;58.30;;;;;;5035165;28;19927;-60
2023/07/18 02:06:43;;;;;;;;;;;21.50;58.30;;;;;;5034672;28;20091;-60
2023/07/18 02:09:10;;;;;;;;;;;21.50;58.30;;;;;;5051804;28;20384;-60
2023/07/18 02:11:35;;;;;;;;;;;21.40;58.20;;;;;;5051061;28;20016;-60
2023/07/18 02:14:03;;;;;;;;;;;21.40;58.20;;;;;;5052463;28;19983;-60
2023/07/18 02:16:29;;;;;;;;;;;21.40;58.30;;;;;;5052596;28;20288;-61
2023/07/18 02:18:56;;;;;;;;;;;21.40;58.20;;;;;;5034511;28;19921;-61
2023/07/18 02:21:22;;;;;;;;;;;21.40;58.20;;;;;;5051337;28;19920;-61
2023/07/18 02:23:47;;;;;;;;;;;21.40;58.20;;;;;;5050902;28;19920;-60
2023/07/18 02:26:14;;;;;;;;;;;21.40;58.30;;;;;;5050839;28;20311;-60
2023/07/18 02:28:39;;;;;;;;;;;21.40;58.30;;;;;;5052365;28;19951;-61
2023/07/18 02:31:05;;;;;;;;;;;21.40;58.30;;;;;;5051313;28;20345;-61
2023/07/18 02:33:30;;;;;;;;;;;21.30;58.20;;;;;;5052279;28;19956;-60
2023/07/18 02:35:56;;;;;;;;;;;21.40;58.30;;;;;;5052236;28;19921;-61
2023/07/18 02:38:21;;;;;;;;;;;21.30;58.20;;;;;;5034488;28;19920;-60
2023/07/18 02:40:47;;;;;;;;;;;21.30;58.20;;;;;;5034318;28;19970;-61
2023/07/18 02:43:13;;;;;;;;;;;21.30;58.20;;;;;;5051992;28;19920;-60
2023/07/18 02:45:39;;;;;;;;;;;21.30;58.20;;;;;;5052124;28;20325;-60
2023/07/18 02:48:05;;;;;;;;;;;21.30;58.20;;;;;;5034103;28;19921;-61
2023/07/18 02:50:31;;;;;;;;;;;21.30;58.20;;;;;;5052207;28;19929;-60
2023/07/18 02:52:58;;;;;;;;;;;21.30;59.00;;;;;;5034188;28;19921;-60
2023/07/18 02:55:24;;;;;;;;;;;21.30;58.20;;;;;;5051969;28;19921;-61
2023/07/18 02:57:50;;;;;;;;;;;21.30;58.30;;;;;;5034344;28;19921;-61
2023/07/18 03:00:19;;;;;;;;;;;21.30;58.30;;;;;;5050675;28;19921;-61
2023/07/18 03:02:46;;;;;;;;;;;21.30;58.30;;;;;;5050677;28;20390;-60
2023/07/18 03:05:11;;;;;;;;;;;21.30;58.30;;;;;;5034317;28;19921;-60
2023/07/18 03:07:37;;;;;;;;;;;21.30;58.30;;;;;;5034074;28;19927;-60
2023/07/18 03:10:04;;;;;;;;;;;21.20;58.20;;;;;;5053529;28;20310;-60
2023/07/18 03:12:30;;;;;;;;;;;21.20;58.20;;;;;;5037746;28;20007;-60
2023/07/18 03:14:55;;;;;;;;;;;21.30;58.30;;;;;;5054694;28;20027;-60
2023/07/18 03:17:21;;;;;;;;;;;21.20;58.20;;;;;;5054366;28;19943;-60
2023/07/18 03:19:47;;;;;;;;;;;21.30;58.30;;;;;;5055662;28;19921;-61
2023/07/18 03:22:13;;;;;;;;;;;21.20;58.20;;;;;;5054291;28;19974;-60
2023/07/18 03:24:38;;;;;;;;;;;21.20;58.20;;;;;;5037895;28;19921;-60
2023/07/18 03:27:04;;;;;;;;;;;21.20;58.20;;;;;;5034232;28;19932;-60
2023/07/18 03:29:29;;;;;;;;;;;21.20;58.20;;;;;;5050978;28;20428;-61
2023/07/18 03:31:55;;;;;;;;;;;21.20;58.20;;;;;;5035452;28;20026;-60
2023/07/18 03:34:20;;;;;;;;;;;21.20;58.30;;;;;;5035423;28;19929;-60
2023/07/18 03:36:46;;;;;;;;;;;21.20;58.30;;;;;;5035510;28;19928;-60
2023/07/18 03:39:13;;;;;;;;;;;21.20;58.20;;;;;;5035337;28;20007;-60
2023/07/18 03:41:39;;;;;;;;;;;21.10;58.20;;;;;;5050672;28;19921;-61
2023/07/18 03:44:04;;;;;;;;;;;21.10;58.20;;;;;;5035183;28;19927;-60
2023/07/18 03:46:30;;;;;;;;;;;21.10;58.20;;;;;;5033731;28;20416;-60
2023/07/18 03:48:55;;;;;;;;;;;21.10;58.90;;;;;;5035340;28;19921;-60
2023/07/18 03:51:21;;;;;;;;;;;21.10;58.20;;;;;;5050371;28;19928;-61
2023/07/18 03:53:46;;;;;;;;;;;21.10;58.20;;;;;;5050345;28;20262;-60
2023/07/18 03:56:12;;;;;;;;;;;21.10;58.20;;;;;;5050564;28;20024;-61
2023/07/18 03:58:37;;;;;;;;;;;21.10;58.30;;;;;;5034894;28;20353;-60
2023/07/18 04:01:07;;;;;;;;;;;21.10;58.20;;;;;;5050213;28;19987;-60
2023/07/18 04:03:33;;;;;;;;;;;21.10;59.00;;;;;;5034891;28;19921;-60
2023/07/18 04:05:59;;;;;;;;;;;21.10;58.20;;;;;;5050578;28;19944;-60
2023/07/18 04:08:24;;;;;;;;;;;21.00;58.30;;;;;;5033405;28;20407;-60
2023/07/18 04:10:50;;;;;;;;;;;21.00;58.20;;;;;;5032839;28;19921;-61
2023/07/18 04:13:15;;;;;;;;;;;21.00;58.20;;;;;;5035107;28;19928;-61
2023/07/18 04:15:41;;;;;;;;;;;21.00;58.20;;;;;;5033547;28;19949;-61
2023/07/18 04:18:06;;;;;;;;;;;21.00;58.20;;;;;;5033322;28;19921;-60
2023/07/18 04:20:31;;;;;;;;;;;21.00;58.30;;;;;;5034150;28;20296;-60
2023/07/18 04:22:57;;;;;;;;;;;21.00;58.20;;;;;;5033586;28;20245;-60
2023/07/18 04:25:23;;;;;;;;;;;21.00;58.20;;;;;;5033497;28;19921;-60
2023/07/18 04:27:48;;;;;;;;;;;21.00;58.20;;;;;;5032762;28;20008;-61
2023/07/18 04:30:14;;;;;;;;;;;21.00;58.20;;;;;;5034308;28;19921;-61
2023/07/18 04:32:42;;;;;;;;;;;21.00;58.20;;;;;;5033302;28;20012;-61
2023/07/18 04:35:08;;;;;;;;;;;21.00;58.30;;;;;;5033074;28;19925;-60
2023/07/18 04:37:33;;;;;;;;;;;21.00;58.30;;;;;;5032977;28;19975;-60
2023/07/18 04:39:59;;;;;;;;;;;21.00;58.20;;;;;;5034273;28;19956;-61
2023/07/18 04:42:24;;;;;;;;;;;21.00;58.30;;;;;;5032811;28;19925;-60
2023/07/18 04:44:50;;;;;;;;;;;21.00;58.20;;;;;;5033167;28;19921;-60
2023/07/18 04:47:15;;;;;;;;;;;21.00;58.30;;;;;;5032054;28;20377;-60
2023/07/18 04:49:40;;;;;;;;;;;21.00;58.30;;;;;;5032537;28;20292;-61
2023/07/18 04:52:07;;;;;;;;;;;21.00;58.20;;;;;;5034297;28;19965;-60
2023/07/18 04:54:33;;;;;;;;;;;20.90;58.20;;;;;;5032665;28;19967;-61
2023/07/18 04:56:58;;;;;;;;;;;21.00;58.20;;;;;;5033934;28;19921;-61
2023/07/18 04:59:23;;;;;;;;;;;21.00;58.20;;;;;;5032860;28;19920;-61
2023/07/18 05:01:53;;;;;;;;;;;20.90;58.20;;;;;;5015936;28;19921;-61
2023/07/18 05:04:19;;;;;;;;;;;20.90;58.20;;;;;;5032994;28;19921;-61
2023/07/18 05:06:45;;;;;;;;;;;20.90;58.20;;;;;;5033772;28;19940;-60
2023/07/18 05:09:11;;;;;;;;;;;20.90;58.20;;;;;;5032637;28;19932;-60
2023/07/18 05:11:36;;;;;;;;;;;20.90;58.10;;;;;;5032597;28;19921;-60
2023/07/18 05:14:02;;;;;;;;;;;20.90;58.20;;;;;;5033516;28;19928;-60
2023/07/18 05:16:27;;;;;;;;;;;20.90;58.20;;;;;;5015721;28;19921;-61
2023/07/18 05:18:52;;;;;;;;;;;20.90;58.20;;;;;;5032107;28;19984;-60
2023/07/18 05:21:18;;;;;;;;;;;20.90;58.20;;;;;;5032475;28;19927;-60
2023/07/18 05:23:44;;;;;;;;;;;20.90;58.20;;;;;;5032327;28;19925;-60
2023/07/18 05:26:10;;;;;;;;;;;20.90;58.30;;;;;;5031862;28;19929;-61
2023/07/18 05:28:35;;;;;;;;;;;20.90;58.20;;;;;;5033131;28;19971;-60
2023/07/18 05:31:08;;;;;;;;;;;20.90;58.20;;;;;;5031954;28;19921;-60
2023/07/18 05:33:34;;;;;;;;;;;20.90;58.20;;;;;;5031852;28;20371;-60
2023/07/18 05:35:59;;;;;;;;;;;20.90;58.20;;;;;;5033333;28;19961;-61
2023/07/18 05:38:25;;;;;;;;;;;20.90;58.20;;;;;;5031722;28;19921;-61
2023/07/18 05:40:50;;;;;;;;;;;20.90;58.20;;;;;;5030227;28;20303;-60
2023/07/18 05:43:18;;;;;;;;;;;20.90;58.20;;;;;;5028820;28;19921;-61
2023/07/18 05:45:44;;;;;;;;;;;20.90;58.20;;;;;;5030575;28;19932;-60
2023/07/18 05:48:09;;;;;;;;;;;20.90;58.20;;;;;;5023323;28;19925;-61
2023/07/18 05:50:35;;;;;;;;;;;20.90;58.30;;;;;;5024929;28;20434;-61
2023/07/18 05:53:01;;;;;;;;;;;20.90;58.20;;;;;;5018094;28;19925;-60
2023/07/18 05:55:27;;;;;;;;;;;20.90;58.20;;;;;;5016735;28;19921;-61
2023/07/18 05:57:53;;;;;;;;;;;20.90;58.20;;;;;;5022923;28;19921;-60
2023/07/18 06:00:19;;;;;;;;;;;20.90;58.30;;;;;;5021666;28;20436;-60
2023/07/18 06:02:44;;;;;;;;;;;20.90;58.20;;;;;;5039976;28;19921;-60
2023/07/18 06:05:10;;;;;;;;;;;20.90;58.20;;;;;;5023183;28;19921;-61
2023/07/18 06:07:36;;;;;;;;;;;20.90;58.20;;;;;;5040024;28;19975;-61
2023/07/18 06:10:01;;;;;;;;;;;20.90;58.20;;;;;;5021392;28;20002;-61
2023/07/18 06:12:27;;;;;;;;;;;20.90;58.30;;;;;;5030845;28;19921;-61
2023/07/18 06:14:54;;;;;;;;;;;20.90;58.30;;;;;;5025242;28;19921;-61
2023/07/18 06:17:20;;;;;;;;;;;20.90;58.30;;;;;;5019230;28;19921;-61
2023/07/18 06:19:46;;;;;;;;;;;20.90;58.50;;;;;;5031935;28;19921;-61
2023/07/18 06:22:12;;;;;;;;;;;20.90;58.40;;;;;;5026225;28;20207;-61
2023/07/18 06:24:37;;;;;;;;;;;20.90;58.70;;;;;;5022901;28;20285;-60
2023/07/18 06:27:03;;;;;;;;;;;20.90;58.60;;;;;;5046370;28;19925;-61
2023/07/18 06:29:29;;;;;;;;;;;20.90;58.60;;;;;;5033481;28;20006;-60
2023/07/18 06:31:56;;;;;;;;;;;20.90;58.60;;;;;;5023785;28;19954;-61
2023/07/18 06:34:22;;;;;;;;;;;20.90;58.70;;;;;;5045548;28;19932;-61
2023/07/18 06:36:47;;;;;;;;;;;20.90;58.80;;;;;;5024055;28;19920;-61
2023/07/18 06:39:13;;;;;;;;;;;20.90;58.70;;;;;;5039993;28;19924;-61
2023/07/18 06:41:39;;;;;;;;;;;20.90;58.80;;;;;;5020064;28;20581;-61
2023/07/18 06:44:07;;;;;;;;;;;20.90;58.90;;;;;;5036864;28;19931;-61
2023/07/18 06:46:32;;;;;;;;;;;20.90;59.00;;;;;;5039501;28;21434;-60
2023/07/18 06:48:58;;;;;;;;;;;21.00;59.40;;;;;;5042157;28;19925;-61
2023/07/18 06:51:24;;;;;;;;;;;21.00;59.60;;;;;;5041804;28;20288;-61
2023/07/18 06:53:49;;;;;;;;;;;20.90;59.90;;;;;;5022265;28;19921;-62
2023/07/18 06:56:14;;;;;;;;;;;20.90;59.50;;;;;;5040467;28;19956;-61
2023/07/18 06:58:41;;;;;;;;;;;21.00;59.60;;;;;;5039840;28;19925;-61
2023/07/18 07:01:07;;;;;;;;;;;21.00;59.70;;;;;;5041511;28;19932;-60
2023/07/18 07:03:33;;;;;;;;;;;21.00;59.60;;;;;;5025021;28;19936;-61
2023/07/18 07:05:58;;;;;;;;;;;21.00;59.50;;;;;;5025562;28;19924;-62
2023/07/18 07:08:24;;;;;;;;;;;21.00;59.40;;;;;;5041450;28;19950;-61
2023/07/18 07:10:52;;;;;;;;;;;21.00;59.50;;;;;;5023580;28;19924;-61
2023/07/18 07:13:18;;;;;;;;;;;21.00;59.40;;;;;;5036446;28;19920;-60
2023/07/18 07:15:43;;;;;;;;;;;21.00;59.40;;;;;;5030076;28;19979;-60
2023/07/18 07:18:09;;;;;;;;;;;21.00;59.40;;;;;;5023328;28;19975;-61
2023/07/18 07:20:34;;;;;;;;;;;21.00;59.50;;;;;;5041133;28;19925;-60
2023/07/18 07:23:00;;;;;;;;;;;21.00;59.50;;;;;;5038413;28;19925;-61
2023/07/18 07:25:26;;;;;;;;;;;21.10;59.70;;;;;;5020490;28;20105;-59
2023/07/18 07:27:52;;;;;;;;;;;21.00;59.60;;;;;;5037948;28;19974;-61
2023/07/18 07:30:17;;;;;;;;;;;21.10;59.80;;;;;;5041067;28;19925;-61
2023/07/18 07:32:43;;;;;;;;;;;21.10;59.70;;;;;;5038672;28;19970;-61
2023/07/18 07:35:09;;;;;;;;;;;21.10;59.70;;;;;;5025174;28;19932;-61
2023/07/18 07:37:36;;;;;;;;;;;21.20;59.50;;;;;;5038956;28;19928;-61
2023/07/18 07:40:02;;;;;;;;;;;21.10;59.50;;;;;;5039978;28;19925;-59
2023/07/18 07:42:28;;;;;;;;;;;21.10;59.50;;;;;;5042175;28;19932;-58
2023/07/18 07:44:53;;;;;;;;;;;21.10;59.80;;;;;;5041866;28;19925;-60
2023/07/18 07:47:19;;;;;;;;;;;21.20;60.10;;;;;;5037816;28;20023;-60
2023/07/18 07:49:44;;;;;;;;;;;21.20;60.30;;;;;;5038264;28;19947;-61
2023/07/18 07:52:11;;;;;;;;;;;21.20;60.50;;;;;;5022986;28;19978;-61
2023/07/18 07:54:36;;;;;;;;;;;21.20;60.80;;;;;;5019548;28;19958;-61
2023/07/18 07:57:02;;;;;;;;;;;21.20;61.20;;;;;;5023893;28;19925;-60
2023/07/18 07:59:27;;;;;;;;;;;21.20;61.10;;;;;;5038387;28;20351;-59
2023/07/18 08:01:53;;;;;;;;;;;21.20;61.10;;;;;;5039705;28;19925;-59
2023/07/18 08:04:19;;;;;;;;;;;21.20;61.20;;;;;;5038645;28;19933;-59
2023/07/18 08:06:45;;;;;;;;;;;21.20;61.40;;;;;;5039295;28;20399;-59
2023/07/18 08:09:11;;;;;;;;;;;21.20;61.50;;;;;;5024273;28;19925;-59
2023/07/18 08:11:36;;;;;;;;;;;21.30;61.40;;;;;;5026657;28;19928;-59
2023/07/18 08:14:02;;;;;;;;;;;21.30;61.50;;;;;;5038289;28;19925;-59
2023/07/18 08:16:28;;;;;;;;;;;21.30;61.60;;;;;;5019458;28;19978;-59
2023/07/18 08:18:53;;;;;;;;;;;21.30;61.40;;;;;;5020698;28;20142;-60
2023/07/18 08:21:18;;;;;;;;;;;21.30;61.50;;;;;;5042556;28;20012;-62
2023/07/18 08:23:44;;;;;;;;;;;21.30;61.70;;;;;;5023679;28;19928;-61
2023/07/18 08:26:09;;;;;;;;;;;21.30;61.60;;;;;;5023617;28;19925;-61
2023/07/18 08:28:35;;;;;;;;;;;21.40;61.90;;;;;;5044595;28;19948;-58
2023/07/18 08:31:04;;;;;;;;;;;21.40;62.10;;;;;;5028255;28;20375;-58
2023/07/18 08:33:30;;;;;;;;;;;21.40;61.90;;;;;;5039797;28;19921;-58
2023/07/18 08:35:55;;;;;;;;;;;21.40;61.70;;;;;;5033704;28;20481;-58
2023/07/18 08:38:21;;;;;;;;;;;21.40;61.80;;;;;;5012709;28;19925;-58
2023/07/18 08:40:48;;;;;;;;;;;21.40;61.90;;;;;;5017990;28;19999;-59
2023/07/18 08:43:14;;;;;;;;;;;21.50;62.00;;;;;;5039735;28;20495;-58
2023/07/18 08:45:40;;;;;;;;;;;21.50;62.00;;;;;;5020956;28;19931;-58
2023/07/18 08:48:06;;;;;;;;;;;21.50;62.20;;;;;;5019231;28;20176;-58
2023/07/18 08:50:32;;;;;;;;;;;21.50;62.20;;;;;;5020195;28;19939;-58
2023/07/18 08:52:58;;;;;;;;;;;21.50;62.50;;;;;;5034112;28;19932;-58
2023/07/18 08:55:24;;;;;;;;;;;21.50;62.50;;;;;;5043460;28;19924;-59
2023/07/18 08:57:50;;;;;;;;;;;21.50;62.50;;;;;;5041641;28;19932;-59
2023/07/18 09:00:20;;;;;;;;;;;21.60;62.20;;;;;;5015101;28;20359;-58
2023/07/18 09:02:48;;;;;;;;;;;21.60;62.50;;;;;;5019498;28;20024;-58
2023/07/18 09:05:26;;;;;;;;;;;21.70;62.90;;;;;;5037528;28;19963;-59
2023/07/18 09:07:54;;;;;;;;;;;21.80;62.70;;;;;;5035676;28;20015;-58
2023/07/18 09:10:20;;;;;;;;;;;21.90;62.70;;;;;;5014763;28;19975;-58
2023/07/18 09:12:45;;;;;;;;;;;22.00;62.50;;;;;;5014965;28;20400;-59
2023/07/18 09:15:17;;;;;;;;;;;22.00;62.20;;;;;;5031684;28;19928;-59
2023/07/18 09:17:47;;;;;;;;;;;22.10;62.00;;;;;;5015084;28;19924;-59
2023/07/18 09:20:16;;;;;;;;;;;22.10;61.80;;;;;;5020989;28;19925;-58
2023/07/18 09:22:42;;;;;;;;;;;22.20;61.70;;;;;;5019060;28;19968;-59
2023/07/18 09:25:07;;;;;;;;;;;22.20;61.50;;;;;;5034636;28;20375;-58
2023/07/18 09:27:35;;;;;;;;;;;22.20;61.20;;;;;;5037587;28;19925;-58
2023/07/18 09:30:00;;;;;;;;;;;22.30;61.20;;;;;;5036331;28;19925;-58
2023/07/18 09:32:26;;;;;;;;;;;22.30;61.00;;;;;;5035501;28;19931;-58
2023/07/18 09:34:53;;;;;;;;;;;22.30;60.90;;;;;;5019023;28;19964;-58
2023/07/18 09:37:19;;;;;;;;;;;22.40;60.90;;;;;;5036264;28;19932;-58
2023/07/18 09:39:45;;;;;;;;;;;22.40;60.80;;;;;;5038444;28;19925;-58
2023/07/18 09:42:11;;;;;;;;;;;22.40;60.80;;;;;;5039244;28;20052;-58
2023/07/18 09:44:37;;;;;;;;;;;22.40;60.50;;;;;;5037912;28;19931;-59
2023/07/18 09:47:04;;;;;;;;;;;22.40;60.30;;;;;;5025880;28;19929;-58
2023/07/18 09:49:29;;;;;;;;;;;22.40;60.20;;;;;;5018594;28;20020;-58
2023/07/18 09:52:03;;;;;;;;;;;22.50;60.10;;;;;;5021014;28;19925;-59
2023/07/18 09:54:30;;;;;;;;;;;22.50;60.00;;;;;;5031007;28;19929;-60
2023/07/18 09:56:57;;;;;;;;;;;22.40;59.80;;;;;;5035626;28;19970;-60
2023/07/18 09:59:23;;;;;;;;;;;22.50;59.70;;;;;;5021883;28;19932;-60
2023/07/18 10:01:51;;;;;;;;;;;22.50;59.50;;;;;;5037810;28;19928;-58
2023/07/18 10:04:18;;;;;;;;;;;22.50;59.40;;;;;;5038224;28;20395;-58
2023/07/18 10:06:44;;;;;;;;;;;22.50;59.20;;;;;;5020650;28;19929;-59
2023/07/18 10:09:10;;;;;;;;;;;22.50;59.10;;;;;;5036887;28;19925;-58
2023/07/18 10:11:55;;;;;;;;;;;22.50;59.10;;;;;;5029061;28;20392;-59
2023/07/18 10:14:21;;;;;;;;;;;22.50;58.90;;;;;;5037515;28;19925;-59
2023/07/18 10:16:52;;;;;;;;;;;22.50;58.60;;;;;;5036622;28;20300;-58
2023/07/18 10:19:23;;;;;;;;;;;22.50;58.50;;;;;;5033625;28;19931;-60
2023/07/18 10:21:50;;;;;;;;;;;22.60;58.40;;;;;;5024246;28;19921;-59
2023/07/18 10:27:06;;;;;;;;;;;22.60;58.00;;;;;;5078032;27;20310;-60
2023/07/18 10:29:32;;;;;;;;;;;22.60;57.50;;;;;;5066045;28;19931;-59
2023/07/18 10:31:59;;;;;;;;;;;22.60;57.50;;;;;;5049313;28;19924;-59
2023/07/18 10:34:24;;;;;;;;;;;22.60;57.30;;;;;;5049469;28;19931;-59
2023/07/18 10:36:59;;;;;;;;;;;22.60;57.30;;;;;;5064673;28;19925;-59
2023/07/18 10:39:40;;;;;;;;;;;22.60;57.10;;;;;;5041516;28;19928;-59
2023/07/18 10:44:47;;;;;;;;;;;22.60;57.00;;;;;;5112428;27;19922;-58
2023/07/18 10:47:17;;;;;;;;;;;22.60;56.90;;;;;;5095102;28;19943;-58
2023/07/18 10:49:42;;;;;;;;;;;22.60;56.80;;;;;;5081335;28;20572;-57
2023/07/18 10:52:08;;;;;;;;;;;22.70;56.90;;;;;;5092164;28;19967;-58
2023/07/18 10:54:33;;;;;;;;;;;22.70;57.10;;;;;;5096729;28;19959;-60
2023/07/18 10:56:59;;;;;;;;;;;22.70;57.30;;;;;;5090028;28;20019;-58
2023/07/18 10:59:24;;;;;;;;;;;22.70;57.20;;;;;;5091313;28;20535;-58
2023/07/18 11:01:50;;;;;;;;;;;22.70;57.30;;;;;;5089429;28;19924;-59
2023/07/18 11:04:15;;;;;;;;;;;22.70;57.40;;;;;;5086704;28;20458;-58
2023/07/18 11:06:49;;;;;;;;;;;22.70;57.50;;;;;;5084683;28;19924;-58
2023/07/18 11:09:15;;;;;;;;;;;22.80;57.90;;;;;;5090772;28;19931;-58
2023/07/18 11:11:40;;;;;;;;;;;22.80;57.90;;;;;;5088928;28;19923;-58
2023/07/18 11:14:06;;;;;;;;;;;22.90;57.60;;;;;;5088631;28;19933;-62
2023/07/18 11:16:32;;;;;;;;;;;22.90;57.30;;;;;;5092202;28;19968;-62
2023/07/18 11:18:59;;;;;;;;;;;22.90;57.20;;;;;;5087486;28;19927;-61
2023/07/18 11:21:25;;;;;;;;;;;22.90;57.10;;;;;;5088046;28;20418;-61
2023/07/18 11:23:51;;;;;;;;;;;22.90;57.10;;;;;;5079826;28;19924;-60
2023/07/18 11:26:17;;;;;;;;;;;22.90;57.00;;;;;;5086207;28;20007;-62
2023/07/18 11:28:44;;;;;;;;;;;22.90;57.00;;;;;;5090590;28;19924;-62
2023/07/18 11:31:25;;;;;;;;;;;23.00;56.90;;;;;;5091025;28;20379;-63
2023/07/18 11:33:53;;;;;;;;;;;23.00;57.20;;;;;;5089707;28;19967;-62
2023/07/18 11:36:19;;;;;;;;;;;23.00;57.50;;;;;;5088886;28;19928;-61
2023/07/18 11:38:47;;;;;;;;;;;23.00;57.70;;;;;;5091033;28;19931;-61
2023/07/18 11:41:14;;;;;;;;;;;23.00;58.00;;;;;;5087151;28;19924;-62
2023/07/18 11:43:41;;;;;;;;;;;23.10;58.10;;;;;;5090337;28;19939;-61
2023/07/18 11:46:08;;;;;;;;;;;23.10;58.30;;;;;;5091228;28;20540;-61
2023/07/18 11:48:33;;;;;;;;;;;23.10;58.40;;;;;;5091222;28;19947;-62
2023/07/18 11:51:06;;;;;;;;;;;23.20;58.50;;;;;;5087576;28;19925;-61
2023/07/18 11:53:31;;;;;;;;;;;23.20;58.80;;;;;;5091199;28;19931;-63
2023/07/18 11:55:57;;;;;;;;;;;23.20;58.90;;;;;;5075138;28;19927;-63
2023/07/18 11:58:24;;;;;;;;;;;23.20;58.40;;;;;;5075812;28;19935;-63
2023/07/18 12:00:49;;;;;;;;;;;23.20;58.20;;;;;;5075093;28;19924;-65
2023/07/18 12:03:15;;;;;;;;;;;23.20;57.80;;;;;;5076758;28;19924;-66
2023/07/18 12:05:40;;;;;;;;;;;23.20;57.60;;;;;;5074638;28;19967;-65
2023/07/18 12:08:06;;;;;;;;;;;23.20;57.30;;;;;;5078144;28;19924;-65
2023/07/18 12:10:32;;;;;;;;;;;23.10;57.00;;;;;;5078058;28;19985;-64
2023/07/18 12:12:58;;;;;;;;;;;23.10;56.80;;;;;;5074414;28;20379;-64
2023/07/18 12:15:23;;;;;;;;;;;23.10;56.60;;;;;;5063834;28;19928;-63
2023/07/18 12:17:50;;;;;;;;;;;23.10;56.40;;;;;;5074918;28;19924;-63
2023/07/18 12:20:15;;;;;;;;;;;23.10;56.20;;;;;;5075971;28;19974;-64
2023/07/18 12:22:41;;;;;;;;;;;23.10;56.10;;;;;;5076600;28;20371;-61
2023/07/18 12:25:07;;;;;;;;;;;23.20;55.90;;;;;;5076403;28;19924;-61
2023/07/18 12:27:32;;;;;;;;;;;23.20;56.70;;;;;;5073264;28;20602;-61
2023/07/18 12:29:58;;;;;;;;;;;23.20;56.40;;;;;;5072883;28;19927;-60
2023/07/18 12:32:23;;;;;;;;;;;23.20;56.00;;;;;;5070255;28;19924;-63
2023/07/18 12:34:49;;;;;;;;;;;23.30;55.80;;;;;;5073317;28;20310;-62
2023/07/18 12:37:14;;;;;;;;;;;23.30;55.70;;;;;;5069398;28;19977;-61
2023/07/18 12:39:40;;;;;;;;;;;23.30;55.60;;;;;;5063757;28;19936;-62
2023/07/18 12:42:06;;;;;;;;;;;23.30;55.70;;;;;;5071248;28;20482;-61
2023/07/18 12:44:39;;;;;;;;;;;23.30;55.50;;;;;;5065591;28;19939;-61
2023/07/18 12:47:06;;;;;;;;;;;23.30;55.90;;;;;;5066450;28;20002;-61
2023/07/18 12:49:31;;;;;;;;;;;23.30;56.10;;;;;;5072078;28;20101;-64
2023/07/18 12:51:57;;;;;;;;;;;23.30;56.30;;;;;;5072938;28;20071;-65
2023/07/18 12:54:22;;;;;;;;;;;23.40;56.20;;;;;;5068500;28;20027;-60
2023/07/18 12:56:48;;;;;;;;;;;23.30;56.40;;;;;;5069059;28;19928;-59
2023/07/18 12:59:13;;;;;;;;;;;23.40;56.90;;;;;;5068409;28;20078;-62
2023/07/18 13:01:39;;;;;;;;;;;23.40;56.60;;;;;;5064285;28;19924;-62
2023/07/18 13:04:04;;;;;;;;;;;23.40;56.50;;;;;;5084033;28;19924;-63
2023/07/18 13:06:30;;;;;;;;;;;23.40;56.40;;;;;;5077778;28;19920;-63
2023/07/18 13:08:56;;;;;;;;;;;23.40;56.10;;;;;;5077851;28;19926;-62
2023/07/18 13:11:22;;;;;;;;;;;23.40;56.40;;;;;;5080421;28;20151;-59
2023/07/18 13:13:48;;;;;;;;;;;23.40;57.00;;;;;;5083589;28;19930;-59
2023/07/18 13:16:14;;;;;;;;;;;23.50;57.00;;;;;;5086012;28;20462;-59
2023/07/18 13:18:39;;;;;;;;;;;23.50;56.90;;;;;;5069666;28;19920;-59
2023/07/18 13:21:06;;;;;;;;;;;23.50;56.80;;;;;;5076101;28;19926;-58
2023/07/18 13:23:31;;;;;;;;;;;23.50;56.90;;;;;;5080853;28;20319;-58
2023/07/18 13:25:57;;;;;;;;;;;23.50;56.80;;;;;;5078924;28;19924;-59
2023/07/18 13:28:22;;;;;;;;;;;23.50;56.60;;;;;;5079890;28;19959;-60
2023/07/18 13:30:48;;;;;;;;;;;23.50;56.50;;;;;;5080575;28;19990;-61
2023/07/18 13:33:13;;;;;;;;;;;23.50;56.20;;;;;;5074697;28;20602;-61
2023/07/18 13:35:39;;;;;;;;;;;23.50;56.40;;;;;;5077022;28;19920;-67
2023/07/18 13:38:04;;;;;;;;;;;23.50;56.10;;;;;;5084497;28;19931;-66
2023/07/18 13:40:30;;;;;;;;;;;23.50;56.00;;;;;;5087759;28;19929;-67
2023/07/18 13:42:55;;;;;;;;;;;23.40;55.80;;;;;;5080882;28;19933;-68
2023/07/18 13:45:21;;;;;;;;;;;23.50;55.90;;;;;;5073715;28;20249;-65
2023/07/18 13:47:46;;;;;;;;;;;23.40;55.30;;;;;;5084811;28;19920;-67
2023/07/18 13:50:12;;;;;;;;;;;23.40;55.60;;;;;;5086213;28;20011;-68
2023/07/18 13:52:37;;;;;;;;;;;23.40;55.40;;;;;;5071842;28;19950;-60
2023/07/18 13:55:03;;;;;;;;;;;23.40;55.20;;;;;;5083116;28;20406;-61
2023/07/18 13:57:28;;;;;;;;;;;23.40;55.30;;;;;;5085854;28;19923;-61
2023/07/18 13:59:54;;;;;;;;;;;23.40;55.30;;;;;;5079761;28;19978;-61
2023/07/18 14:02:19;;;;;;;;;;;23.40;55.40;;;;;;5077078;28;20585;-61
2023/07/18 14:04:45;;;;;;;;;;;23.30;55.30;;;;;;5074067;28;19924;-61
2023/07/18 14:07:10;;;;;;;;;;;23.30;55.50;;;;;;5078929;28;20276;-61
2023/07/18 14:09:36;;;;;;;;;;;23.30;55.50;;;;;;5071952;28;20539;-61
2023/07/18 14:12:01;;;;;;;;;;;23.20;55.50;;;;;;5085253;28;20007;-60
2023/07/18 14:14:27;;;;;;;;;;;23.20;55.60;;;;;;5075428;28;19920;-60